createdAt,value
2018-11-22T12:17:14.128Z,100765.06
2018-11-22T12:22:18.666Z,100769.67
2018-11-22T12:27:23.127Z,100766.55
2018-11-22T12:32:32.509Z,100767.77
2018-11-22T12:37:43.334Z,100765.73
2018-11-22T12:42:44.244Z,100756.30
2018-11-22T12:47:48.845Z,100754.89
2018-11-22T12:52:53.842Z,100756.14
2018-11-22T13:03:14.959Z,100755.94
2018-11-22T13:08:19.799Z,100755.28
2018-11-22T13:13:24.507Z,100758.59
2018-11-22T13:18:29.813Z,100761.59
2018-11-22T13:23:39.630Z,100760.07
2018-11-22T13:28:44.086Z,100765.19
2018-11-22T13:33:48.576Z,100761.31
2018-11-22T13:38:53.243Z,100765.11
2018-11-22T13:43:57.873Z,100760.65
2018-11-22T13:49:02.574Z,100756.41
2018-11-22T13:54:12.336Z,100759.11
2018-11-22T13:59:17.387Z,100758.16
2018-11-22T14:04:22.169Z,100758.00
2018-11-22T14:09:26.474Z,100759.55
2018-11-22T14:14:31.759Z,100760.53
2018-11-22T14:19:37.067Z,100765.11
2018-11-22T14:24:41.728Z,100766.43
2018-11-22T14:29:46.985Z,100765.30
2018-11-22T14:34:51.783Z,100762.02
2018-11-22T14:39:56.374Z,100762.05
2018-11-22T14:45:00.905Z,100758.11
2018-11-22T14:50:09.847Z,100759.02
2018-11-22T14:55:14.567Z,100763.25
2018-11-22T15:00:19.204Z,100761.94
2018-11-22T15:05:23.830Z,100759.02
2018-11-22T15:10:28.883Z,100761.38
2018-11-22T15:15:33.609Z,100765.66
2018-11-22T15:20:38.201Z,100760.27
2018-11-22T15:25:43.419Z,100762.82
2018-11-22T15:30:48.026Z,100762.82
2018-11-22T15:35:53.289Z,100770.20
2018-11-22T15:40:58.041Z,100768.08
2018-11-22T15:46:03.007Z,100769.61
2018-11-22T15:51:07.425Z,100770.66
2018-11-22T15:56:11.779Z,100775.62
2018-11-22T16:01:16.292Z,100773.78
2018-11-22T16:06:21.367Z,100779.19
2018-11-22T16:11:25.304Z,100774.66
2018-11-22T16:16:29.815Z,100782.53
2018-11-22T16:21:35.643Z,100782.61
2018-11-22T16:26:39.988Z,100789.70
2018-11-22T16:31:44.366Z,100786.05
2018-11-22T16:36:51.217Z,100785.11
2018-11-22T16:41:56.639Z,100788.23
2018-11-22T16:47:00.952Z,100786.91
2018-11-22T16:52:05.390Z,100791.67
2018-11-22T16:57:14.736Z,100792.92
2018-11-22T17:02:19.106Z,100785.23
2018-11-22T17:07:23.655Z,100785.23
2018-11-22T17:12:28.518Z,100789.99
2018-11-22T17:17:33.028Z,100787.59
2018-11-22T17:22:37.702Z,100789.99
2018-11-22T17:27:42.975Z,100785.45
2018-11-22T17:32:47.654Z,100782.67
2018-11-22T17:37:52.653Z,100781.09
2018-11-22T17:42:57.904Z,100781.09
2018-11-22T17:48:02.570Z,100784.97
2018-11-22T17:53:07.529Z,100789.40
2018-11-22T17:58:12.180Z,100779.42
2018-11-22T18:03:16.482Z,100775.77
2018-11-22T18:08:20.961Z,100775.19
2018-11-22T18:13:27.685Z,100771.84
2018-11-22T18:23:46.992Z,100770.59
2018-11-22T18:28:51.597Z,100759.79
2018-11-22T18:33:56.444Z,100764.91
2018-11-22T18:39:00.955Z,100768.55
2018-11-22T18:44:05.523Z,100766.64
2018-11-22T18:49:09.851Z,100768.25
2018-11-22T18:54:15.485Z,100768.09
2018-11-22T18:59:19.847Z,100763.30
2018-11-22T19:04:25.342Z,100767.59
2018-11-22T19:09:31.377Z,100767.01
2018-11-22T19:14:37.372Z,100767.44
2018-11-22T19:19:41.852Z,100772.63
2018-11-22T19:24:46.219Z,100767.97
2018-11-22T19:29:50.869Z,100772.40
2018-11-22T19:34:55.839Z,100770.86
2018-11-22T19:40:01.409Z,100773.71
2018-11-22T19:45:08.933Z,100774.53
2018-11-22T19:50:17.372Z,100763.80
2018-11-22T19:55:26.569Z,100771.54
2018-11-22T20:00:32.144Z,100772.85
2018-11-22T20:05:37.878Z,100779.19
2018-11-22T20:10:43.468Z,100783.73
2018-11-22T20:15:47.914Z,100798.44
2018-11-22T20:20:55.605Z,100791.87
2018-11-22T20:26:00.076Z,100797.42
2018-11-22T20:31:06.487Z,100798.02
2018-11-22T20:36:11.498Z,100790.85
2018-11-22T20:41:16.374Z,100796.33
2018-11-22T20:46:20.764Z,100799.25
2018-11-22T20:51:26.376Z,100795.81
2018-11-22T20:56:30.777Z,100790.78
2018-11-22T21:01:35.034Z,100798.44
2018-11-22T21:06:39.299Z,100802.38
2018-11-22T21:11:43.793Z,100808.67
2018-11-22T21:16:48.429Z,100810.41
2018-11-22T21:21:52.707Z,100806.54
2018-11-22T21:26:57.085Z,100806.47
2018-11-22T21:32:01.458Z,100809.98
2018-11-22T21:37:05.991Z,100817.42
2018-11-22T21:42:10.562Z,100814.27
2018-11-22T21:47:14.934Z,100811.16
2018-11-22T21:52:19.559Z,100818.97
2018-11-22T21:57:25.468Z,100814.95
2018-11-22T22:02:29.907Z,100811.20
2018-11-22T22:07:34.486Z,100817.50
2018-11-22T22:12:39.315Z,100813.49
2018-11-22T22:17:44.550Z,100812.67
2018-11-22T22:22:49.272Z,100816.61
2018-11-22T22:27:54.965Z,100820.77
2018-11-22T22:33:00.909Z,100820.48
2018-11-22T22:38:06.017Z,100818.22
2018-11-22T22:43:10.711Z,100820.05
2018-11-22T22:48:15.259Z,100816.38
2018-11-22T22:53:19.600Z,100810.87
2018-11-22T22:58:24.156Z,100812.67
2018-11-22T23:03:29.244Z,100808.95
2018-11-22T23:08:33.641Z,100806.03
2018-11-22T23:13:38.458Z,100801.23
2018-11-22T23:18:42.789Z,100801.53
2018-11-22T23:23:47.082Z,100803.64
2018-11-22T23:28:52.424Z,100800.48
2018-11-22T23:33:57.764Z,100800.00
2018-11-22T23:39:02.115Z,100799.77
2018-11-22T23:44:06.732Z,100795.68
2018-11-22T23:49:11.058Z,100799.69
2018-11-22T23:54:15.303Z,100800.21
2018-11-22T23:59:19.645Z,100801.75
